Time;durP1;ratioP1;P1;durP2;ratioP2;P2;SDS_P1;SDS_P2;PMS_P1;PMS_P2;Temp;Humidity;BMP_temperature;BMP_pressure;BME280_temperature;BME280_humidity;BME280_pressure;Samples;Min_cycle;Max_cycle;Signal;HPM_P1;HPM_P2
2023/04/19 00:01:27;;;;;;;8.68;5.30;;;;;;;;;;5093872;28;20368;-64
2023/04/19 00:03:54;;;;;;;7.50;5.22;;;;;;;;;;5093751;28;20035;-64
2023/04/19 00:06:20;;;;;;;5.55;4.85;;;;;;;;;;5093716;28;20024;-63
2023/04/19 00:08:45;;;;;;;6.43;5.10;;;;;;;;;;5093586;28;20111;-64
2023/04/19 00:11:11;;;;;;;5.53;5.00;;;;;;;;;;5093827;28;20024;-63
2023/04/19 00:13:37;;;;;;;5.47;4.60;;;;;;;;;;5093545;28;20527;-64
2023/04/19 00:16:02;;;;;;;5.38;4.80;;;;;;;;;;5093442;28;20111;-64
2023/04/19 00:18:28;;;;;;;5.55;4.93;;;;;;;;;;5093787;28;20043;-63
2023/04/19 00:20:53;;;;;;;7.50;5.15;;;;;;;;;;5093643;28;20490;-63
2023/04/19 00:23:19;;;;;;;6.55;5.05;;;;;;;;;;5093628;28;20585;-64
2023/04/19 00:25:45;;;;;;;6.32;4.93;;;;;;;;;;5093298;28;20020;-63
2023/04/19 00:28:11;;;;;;;6.80;5.45;;;;;;;;;;5093522;28;20032;-63
2023/04/19 00:30:36;;;;;;;5.07;4.57;;;;;;;;;;5093226;28;20028;-64
2023/04/19 00:33:02;;;;;;;5.50;4.90;;;;;;;;;;5093290;28;20514;-63
2023/04/19 00:35:27;;;;;;;5.30;4.70;;;;;;;;;;5092956;28;20040;-64
2023/04/19 00:37:53;;;;;;;6.60;5.30;;;;;;;;;;5075120;28;20464;-63
2023/04/19 00:40:19;;;;;;;6.25;4.80;;;;;;;;;;5093112;28;20024;-64
2023/04/19 00:42:44;;;;;;;5.68;4.57;;;;;;;;;;5093300;28;20028;-63
2023/04/19 00:45:10;;;;;;;7.00;5.30;;;;;;;;;;5093244;28;20456;-64
2023/04/19 00:47:36;;;;;;;6.55;5.22;;;;;;;;;;5092829;28;20062;-64
2023/04/19 00:50:03;;;;;;;5.70;4.88;;;;;;;;;;5092992;28;20028;-64
2023/04/19 00:52:29;;;;;;;7.57;5.25;;;;;;;;;;5093108;28;20024;-64
2023/04/19 00:54:56;;;;;;;5.38;4.88;;;;;;;;;;5092906;28;20525;-63
2023/04/19 00:57:21;;;;;;;5.28;4.70;;;;;;;;;;5092941;28;20028;-63
2023/04/19 00:59:47;;;;;;;5.95;5.07;;;;;;;;;;5092676;28;20615;-64
2023/04/19 01:02:13;;;;;;;5.88;5.15;;;;;;;;;;5092709;28;20058;-63
2023/04/19 01:04:39;;;;;;;5.72;5.00;;;;;;;;;;5092259;28;20104;-64
2023/04/19 01:07:05;;;;;;;5.38;4.82;;;;;;;;;;5092493;28;20514;-64
2023/04/19 01:09:31;;;;;;;5.47;4.88;;;;;;;;;;5092539;28;20077;-64
2023/04/19 01:11:56;;;;;;;6.40;4.80;;;;;;;;;;5092758;28;20115;-63
2023/04/19 01:14:22;;;;;;;5.38;4.88;;;;;;;;;;5074480;28;20057;-64
2023/04/19 01:16:48;;;;;;;5.20;4.57;;;;;;;;;;5092726;28;20020;-64
2023/04/19 01:19:13;;;;;;;6.70;4.88;;;;;;;;;;5092577;28;20028;-64
2023/04/19 01:21:39;;;;;;;6.53;4.97;;;;;;;;;;5092422;28;20119;-64
2023/04/19 01:24:05;;;;;;;7.32;4.70;;;;;;;;;;5092678;28;20028;-64
2023/04/19 01:26:30;;;;;;;6.20;4.93;;;;;;;;;;5092327;28;20057;-64
2023/04/19 01:28:56;;;;;;;5.35;4.80;;;;;;;;;;5092359;28;20036;-63
2023/04/19 01:31:22;;;;;;;7.25;5.38;;;;;;;;;;5092578;28;20035;-63
2023/04/19 01:33:47;;;;;;;6.55;4.80;;;;;;;;;;5092186;28;20553;-63
2023/04/19 01:36:13;;;;;;;5.50;4.93;;;;;;;;;;5092691;28;20039;-64
2023/04/19 01:38:38;;;;;;;5.82;4.47;;;;;;;;;;5074184;28;20078;-64
2023/04/19 01:41:04;;;;;;;5.65;4.68;;;;;;;;;;5092310;28;20024;-64
2023/04/19 01:43:29;;;;;;;5.25;4.75;;;;;;;;;;5092515;28;20036;-64
2023/04/19 01:45:55;;;;;;;4.93;4.40;;;;;;;;;;5092330;28;20392;-65
2023/04/19 01:48:20;;;;;;;4.93;4.45;;;;;;;;;;5092222;28;20055;-63
2023/04/19 01:50:46;;;;;;;5.40;4.68;;;;;;;;;;5092209;28;20028;-64
2023/04/19 01:53:11;;;;;;;5.22;4.65;;;;;;;;;;5092470;28;20536;-63
2023/04/19 01:55:38;;;;;;;6.32;4.63;;;;;;;;;;5092210;28;20032;-63
2023/04/19 01:58:03;;;;;;;5.20;4.65;;;;;;;;;;5092084;28;20020;-63
2023/04/19 02:00:29;;;;;;;5.35;4.85;;;;;;;;;;5092190;28;20146;-63
2023/04/19 02:02:54;;;;;;;5.00;4.45;;;;;;;;;;5092338;28;20024;-64
2023/04/19 02:05:20;;;;;;;4.97;4.40;;;;;;;;;;5092106;28;20434;-63
2023/04/19 02:07:45;;;;;;;4.72;4.28;;;;;;;;;;5092050;28;20032;-63
2023/04/19 02:10:11;;;;;;;6.80;5.03;;;;;;;;;;5092268;28;20028;-64
2023/04/19 02:12:37;;;;;;;5.07;4.50;;;;;;;;;;5091932;28;20024;-63
2023/04/19 02:15:03;;;;;;;5.68;4.53;;;;;;;;;;5092299;28;20028;-63
2023/04/19 02:17:29;;;;;;;5.50;4.97;;;;;;;;;;5095290;28;20055;-64
2023/04/19 02:19:54;;;;;;;6.30;4.65;;;;;;;;;;5096006;28;20028;-64
2023/04/19 02:22:20;;;;;;;5.75;4.65;;;;;;;;;;5095785;28;20024;-63
2023/04/19 02:24:49;;;;;;;5.30;4.80;;;;;;;;;;5095664;28;20039;-64
2023/04/19 02:27:15;;;;;;;5.40;4.90;;;;;;;;;;5095411;28;20127;-64
2023/04/19 02:29:40;;;;;;;4.97;4.47;;;;;;;;;;5095537;28;20027;-63
2023/04/19 02:32:06;;;;;;;5.68;5.00;;;;;;;;;;5095567;28;20047;-69
2023/04/19 02:34:33;;;;;;;5.13;4.63;;;;;;;;;;5095293;28;20044;-69
2023/04/19 02:36:59;;;;;;;5.10;4.38;;;;;;;;;;5095312;28;20028;-69
2023/04/19 02:39:25;;;;;;;5.18;4.68;;;;;;;;;;5095314;28;20020;-70
2023/04/19 02:41:50;;;;;;;5.10;4.60;;;;;;;;;;5095358;28;20030;-69
2023/04/19 02:44:16;;;;;;;5.20;4.70;;;;;;;;;;5095283;28;20024;-69
2023/04/19 02:46:51;;;;;;;5.18;4.68;;;;;;;;;;5095204;28;20028;-68
2023/04/19 02:49:17;;;;;;;5.10;4.60;;;;;;;;;;5095406;28;20387;-69
2023/04/19 02:51:42;;;;;;;4.90;4.35;;;;;;;;;;5095244;28;20107;-68
2023/04/19 02:54:08;;;;;;;5.15;4.60;;;;;;;;;;5095013;28;20103;-69
2023/04/19 02:56:33;;;;;;;5.00;4.50;;;;;;;;;;5095383;28;20024;-69
2023/04/19 02:59:03;;;;;;;5.65;4.80;;;;;;;;;;5095040;28;20499;-69
2023/04/19 03:01:29;;;;;;;5.68;4.50;;;;;;;;;;5094993;28;20020;-69
2023/04/19 03:03:55;;;;;;;6.57;4.70;;;;;;;;;;5094846;28;20024;-68
2023/04/19 03:06:20;;;;;;;5.90;4.68;;;;;;;;;;5094980;28;20488;-69
2023/04/19 03:08:46;;;;;;;5.07;4.57;;;;;;;;;;5094679;28;20111;-70
2023/04/19 03:11:12;;;;;;;6.95;4.90;;;;;;;;;;5076682;28;20032;-69
2023/04/19 03:13:39;;;;;;;5.38;4.70;;;;;;;;;;5094985;28;20031;-70
2023/04/19 03:16:05;;;;;;;5.30;4.45;;;;;;;;;;5094915;28;20095;-70
2023/04/19 03:18:31;;;;;;;6.72;4.97;;;;;;;;;;5094703;28;20476;-69
2023/04/19 03:20:56;;;;;;;5.63;4.55;;;;;;;;;;5094581;28;20082;-70
2023/04/19 03:23:22;;;;;;;5.97;4.68;;;;;;;;;;5094542;28;20127;-68
2023/04/19 03:25:47;;;;;;;5.78;4.45;;;;;;;;;;5094539;28;20109;-70
2023/04/19 03:28:13;;;;;;;5.72;4.35;;;;;;;;;;5093595;28;20032;-69
2023/04/19 03:30:39;;;;;;;5.53;4.78;;;;;;;;;;5094773;28;20054;-68
2023/04/19 03:33:04;;;;;;;5.28;4.47;;;;;;;;;;5094214;28;20100;-68
2023/04/19 03:35:31;;;;;;;5.20;4.70;;;;;;;;;;5094210;28;20051;-69
2023/04/19 03:37:57;;;;;;;5.07;4.50;;;;;;;;;;5094202;28;20111;-68
2023/04/19 03:40:22;;;;;;;5.18;4.68;;;;;;;;;;5094243;28;20110;-66
2023/04/19 03:42:48;;;;;;;6.22;4.88;;;;;;;;;;5094133;28;20024;-68
2023/04/19 03:45:13;;;;;;;5.20;4.40;;;;;;;;;;5094172;28;20028;-69
2023/04/19 03:47:39;;;;;;;5.18;4.50;;;;;;;;;;5094033;28;20468;-69
2023/04/19 03:50:05;;;;;;;5.32;4.82;;;;;;;;;;5093696;28;20365;-65
2023/04/19 03:52:30;;;;;;;5.82;4.80;;;;;;;;;;5093541;28;20103;-69
2023/04/19 03:54:56;;;;;;;5.80;5.05;;;;;;;;;;5075623;28;20081;-68
2023/04/19 03:57:21;;;;;;;5.22;4.20;;;;;;;;;;5094100;28;20023;-68
2023/04/19 03:59:47;;;;;;;5.32;4.65;;;;;;;;;;5093852;28;20047;-69
2023/04/19 04:02:12;;;;;;;5.10;4.53;;;;;;;;;;5094039;28;20075;-65
2023/04/19 04:04:38;;;;;;;4.97;4.53;;;;;;;;;;5093788;28;20115;-68
2023/04/19 04:07:03;;;;;;;5.25;4.75;;;;;;;;;;5093768;28;20469;-68
2023/04/19 04:09:29;;;;;;;5.78;4.90;;;;;;;;;;5093120;28;20190;-68
2023/04/19 04:11:55;;;;;;;4.60;4.20;;;;;;;;;;5074744;28;20047;-69
2023/04/19 04:14:20;;;;;;;6.22;4.65;;;;;;;;;;5093240;28;20012;-65
2023/04/19 04:16:46;;;;;;;5.25;4.68;;;;;;;;;;5093103;28;20042;-68
2023/04/19 04:19:11;;;;;;;5.00;4.55;;;;;;;;;;5093106;28;20377;-69
2023/04/19 04:21:37;;;;;;;4.95;4.50;;;;;;;;;;5092681;28;20103;-64
2023/04/19 04:24:03;;;;;;;5.75;4.43;;;;;;;;;;5093493;28;20031;-67
2023/04/19 04:26:29;;;;;;;5.18;4.60;;;;;;;;;;5093759;28;20032;-64
2023/04/19 04:28:56;;;;;;;5.43;4.90;;;;;;;;;;5093406;28;20115;-69
2023/04/19 04:31:21;;;;;;;5.07;4.57;;;;;;;;;;5092961;28;20028;-64
2023/04/19 04:33:47;;;;;;;6.20;4.85;;;;;;;;;;5092833;28;20044;-66
2023/04/19 04:36:12;;;;;;;4.72;4.32;;;;;;;;;;5074859;28;20020;-69
2023/04/19 04:38:38;;;;;;;4.88;4.43;;;;;;;;;;5092680;28;20114;-63
2023/04/19 04:41:04;;;;;;;5.28;4.55;;;;;;;;;;5093026;28;20124;-64
2023/04/19 04:43:31;;;;;;;5.25;4.30;;;;;;;;;;5092976;28;20070;-68
2023/04/19 04:45:56;;;;;;;5.15;4.72;;;;;;;;;;5093245;28;20024;-66
2023/04/19 04:48:23;;;;;;;4.55;4.15;;;;;;;;;;5092804;28;20028;-66
2023/04/19 04:50:48;;;;;;;5.03;4.50;;;;;;;;;;5092563;28;20028;-63
2023/04/19 04:53:14;;;;;;;4.90;4.38;;;;;;;;;;5091673;28;20390;-63
2023/04/19 04:55:39;;;;;;;4.95;4.43;;;;;;;;;;5088971;28;20016;-64
2023/04/19 04:58:05;;;;;;;5.20;4.45;;;;;;;;;;5090389;28;20027;-63
2023/04/19 05:00:31;;;;;;;5.55;5.05;;;;;;;;;;5091352;28;20019;-67
2023/04/19 05:02:58;;;;;;;4.90;4.32;;;;;;;;;;5092013;28;20032;-63
2023/04/19 05:05:24;;;;;;;6.57;4.53;;;;;;;;;;5092888;28;20027;-63
2023/04/19 05:07:49;;;;;;;4.90;4.50;;;;;;;;;;5092501;28;20497;-62
2023/04/19 05:10:15;;;;;;;5.78;4.25;;;;;;;;;;5092571;28;20020;-62
2023/04/19 05:12:41;;;;;;;5.80;4.65;;;;;;;;;;5091630;28;20055;-63
2023/04/19 05:15:07;;;;;;;4.78;4.32;;;;;;;;;;5092418;28;20062;-63
2023/04/19 05:17:33;;;;;;;5.45;4.35;;;;;;;;;;5092914;28;20357;-62
2023/04/19 05:19:59;;;;;;;5.88;4.47;;;;;;;;;;5092453;28;20038;-67
2023/04/19 05:22:25;;;;;;;5.10;4.60;;;;;;;;;;5092452;28;20039;-68
2023/04/19 05:24:50;;;;;;;4.97;4.38;;;;;;;;;;5092408;28;20028;-66
2023/04/19 05:27:16;;;;;;;5.15;4.57;;;;;;;;;;5086860;28;20032;-68
2023/04/19 05:29:41;;;;;;;5.25;4.47;;;;;;;;;;5072386;28;20384;-67
2023/04/19 05:32:07;;;;;;;5.00;4.50;;;;;;;;;;5072576;28;20388;-68
2023/04/19 05:34:33;;;;;;;5.05;4.55;;;;;;;;;;5072173;28;20041;-63
2023/04/19 05:36:59;;;;;;;5.50;4.60;;;;;;;;;;5072043;28;20028;-67
2023/04/19 05:39:25;;;;;;;6.28;4.80;;;;;;;;;;5072212;28;20021;-63
2023/04/19 05:41:51;;;;;;;5.30;4.45;;;;;;;;;;5080566;28;20023;-66
2023/04/19 05:44:16;;;;;;;5.28;4.70;;;;;;;;;;5092372;28;20107;-65
2023/04/19 05:46:42;;;;;;;5.22;4.55;;;;;;;;;;5092414;28;20062;-63
2023/04/19 05:49:07;;;;;;;4.90;4.50;;;;;;;;;;5092230;28;20082;-64
2023/04/19 05:51:33;;;;;;;5.32;4.60;;;;;;;;;;5095681;28;20048;-68
2023/04/19 05:54:02;;;;;;;6.20;4.70;;;;;;;;;;5096498;28;20024;-64
2023/04/19 05:56:27;;;;;;;6.18;5.22;;;;;;;;;;5096568;28;20116;-66
2023/04/19 05:58:55;;;;;;;6.47;5.32;;;;;;;;;;5096221;28;20064;-64
2023/04/19 06:01:20;;;;;;;6.70;5.20;;;;;;;;;;5096498;28;20028;-63
2023/04/19 06:03:46;;;;;;;5.70;5.10;;;;;;;;;;5096259;28;20375;-66
2023/04/19 06:06:12;;;;;;;5.50;4.95;;;;;;;;;;5095765;28;20025;-66
2023/04/19 06:08:40;;;;;;;5.55;4.95;;;;;;;;;;5093956;28;20027;-67
2023/04/19 06:11:05;;;;;;;5.28;4.53;;;;;;;;;;5093988;28;20069;-68
2023/04/19 06:13:31;;;;;;;6.50;4.97;;;;;;;;;;5094138;28;20024;-67
2023/04/19 06:15:57;;;;;;;6.63;5.20;;;;;;;;;;5094482;28;20032;-68
2023/04/19 06:18:22;;;;;;;5.82;5.22;;;;;;;;;;5094287;28;20031;-65
2023/04/19 06:20:48;;;;;;;6.00;5.22;;;;;;;;;;5109957;28;20031;-66
2023/04/19 06:23:13;;;;;;;5.88;5.28;;;;;;;;;;5095389;28;20027;-66
2023/04/19 06:25:39;;;;;;;6.10;4.88;;;;;;;;;;5095596;28;20225;-67
2023/04/19 06:28:05;;;;;;;5.35;4.85;;;;;;;;;;5095847;28;20391;-66
2023/04/19 06:30:31;;;;;;;5.30;4.78;;;;;;;;;;5095547;28;20024;-66
2023/04/19 06:32:56;;;;;;;5.80;5.07;;;;;;;;;;5095542;28;20028;-66
2023/04/19 06:35:24;;;;;;;6.93;5.07;;;;;;;;;;5093560;28;20040;-66
2023/04/19 06:37:49;;;;;;;5.88;4.80;;;;;;;;;;5092239;28;20480;-68
2023/04/19 06:40:15;;;;;;;6.43;5.00;;;;;;;;;;5086524;28;20112;-65
2023/04/19 06:42:41;;;;;;;5.75;5.00;;;;;;;;;;5074964;28;20025;-67
2023/04/19 06:45:07;;;;;;;5.30;4.80;;;;;;;;;;5057163;28;20131;-67
2023/04/19 06:47:32;;;;;;;5.97;5.03;;;;;;;;;;5075093;28;20032;-67
2023/04/19 06:49:58;;;;;;;5.40;4.88;;;;;;;;;;5074995;28;20024;-68
2023/04/19 06:52:24;;;;;;;5.43;4.93;;;;;;;;;;5090527;28;20056;-68
2023/04/19 06:54:50;;;;;;;6.18;4.97;;;;;;;;;;5074796;28;20458;-64
2023/04/19 06:57:17;;;;;;;5.63;4.90;;;;;;;;;;5086531;28;20024;-67
2023/04/19 06:59:43;;;;;;;5.63;5.07;;;;;;;;;;5095017;28;20518;-67
2023/04/19 07:02:08;;;;;;;6.32;5.00;;;;;;;;;;5094259;28;20032;-67
2023/04/19 07:04:35;;;;;;;5.25;4.75;;;;;;;;;;5060193;28;20031;-69
2023/04/19 07:07:02;;;;;;;5.90;5.22;;;;;;;;;;5094579;28;20020;-67
2023/04/19 07:09:27;;;;;;;4.88;4.35;;;;;;;;;;5094799;28;20036;-68
2023/04/19 07:11:53;;;;;;;6.32;5.20;;;;;;;;;;5081842;28;20044;-67
2023/04/19 07:14:19;;;;;;;5.93;4.65;;;;;;;;;;5074607;28;20029;-65
2023/04/19 07:16:45;;;;;;;5.28;4.70;;;;;;;;;;5074360;28;20078;-67
2023/04/19 07:19:12;;;;;;;7.60;4.95;;;;;;;;;;5056437;28;20029;-64
2023/04/19 07:21:38;;;;;;;6.38;5.07;;;;;;;;;;5074312;28;20033;-66
2023/04/19 07:24:05;;;;;;;5.53;4.95;;;;;;;;;;5056353;28;20024;-64
2023/04/19 07:26:31;;;;;;;5.90;5.00;;;;;;;;;;5074475;28;20016;-65
2023/04/19 07:28:57;;;;;;;7.55;5.18;;;;;;;;;;5074142;28;20488;-68
2023/04/19 07:31:25;;;;;;;5.45;4.95;;;;;;;;;;5074434;28;20406;-64
2023/04/19 07:33:52;;;;;;;5.20;4.70;;;;;;;;;;5073883;28;20052;-64
2023/04/19 07:36:17;;;;;;;6.10;5.20;;;;;;;;;;5074046;28;20027;-67
2023/04/19 07:38:43;;;;;;;5.38;4.75;;;;;;;;;;5073984;28;20021;-68
2023/04/19 07:41:09;;;;;;;5.47;4.88;;;;;;;;;;5074251;28;20381;-64
2023/04/19 07:43:35;;;;;;;6.10;4.70;;;;;;;;;;5073976;28;20480;-64
2023/04/19 07:46:01;;;;;;;5.28;4.75;;;;;;;;;;5055903;28;20610;-66
2023/04/19 07:48:27;;;;;;;5.65;4.88;;;;;;;;;;5079187;28;20110;-64
2023/04/19 07:50:53;;;;;;;5.65;4.82;;;;;;;;;;5070447;28;20557;-65
2023/04/19 07:53:18;;;;;;;5.28;4.78;;;;;;;;;;5086141;28;20376;-65
2023/04/19 07:55:44;;;;;;;5.43;4.93;;;;;;;;;;5087976;28;20035;-65
2023/04/19 07:58:10;;;;;;;6.00;5.22;;;;;;;;;;5088067;28;20024;-65
2023/04/19 08:00:36;;;;;;;5.00;4.50;;;;;;;;;;5088547;28;20112;-66
2023/04/19 08:03:02;;;;;;;5.45;4.70;;;;;;;;;;5091738;28;20016;-63
2023/04/19 08:05:29;;;;;;;5.70;4.85;;;;;;;;;;5089685;28;20077;-65
2023/04/19 08:07:55;;;;;;;6.05;5.20;;;;;;;;;;5091093;28;20035;-66
2023/04/19 08:10:21;;;;;;;5.53;4.75;;;;;;;;;;5090536;28;20024;-65
2023/04/19 08:12:48;;;;;;;6.05;4.68;;;;;;;;;;5087128;28;20020;-66
2023/04/19 08:15:14;;;;;;;5.28;4.78;;;;;;;;;;5082858;28;20430;-65
2023/04/19 08:17:42;;;;;;;5.20;4.70;;;;;;;;;;5088248;28;20020;-64
2023/04/19 08:20:09;;;;;;;5.15;4.47;;;;;;;;;;5092468;28;20024;-65
2023/04/19 08:22:35;;;;;;;6.05;4.70;;;;;;;;;;5090931;28;20036;-66
2023/04/19 08:25:01;;;;;;;6.38;5.13;;;;;;;;;;5086682;28;20077;-67
2023/04/19 08:27:26;;;;;;;5.03;4.53;;;;;;;;;;5088902;28;20036;-66
2023/04/19 08:29:52;;;;;;;4.95;4.45;;;;;;;;;;5093254;28;20063;-66
2023/04/19 08:32:17;;;;;;;5.53;4.90;;;;;;;;;;5093071;28;20020;-65
2023/04/19 08:34:43;;;;;;;5.78;4.97;;;;;;;;;;5093059;28;20079;-65
2023/04/19 08:37:09;;;;;;;7.35;4.80;;;;;;;;;;5089216;28;20020;-65
2023/04/19 08:39:34;;;;;;;8.43;4.93;;;;;;;;;;5075733;28;20353;-66
2023/04/19 08:42:09;;;;;;;8.95;4.97;;;;;;;;;;5075372;28;20107;-66
2023/04/19 08:44:39;;;;;;;5.20;4.70;;;;;;;;;;5093269;28;20084;-65
2023/04/19 08:47:06;;;;;;;5.28;4.70;;;;;;;;;;5093141;28;20107;-66
2023/04/19 08:49:35;;;;;;;10.52;4.93;;;;;;;;;;5092953;28;20111;-65
2023/04/19 08:52:02;;;;;;;8.88;5.63;;;;;;;;;;5090471;28;20024;-65
2023/04/19 08:54:30;;;;;;;9.57;5.22;;;;;;;;;;5091255;28;20043;-66
2023/04/19 08:56:59;;;;;;;7.78;5.20;;;;;;;;;;5086589;28;20028;-66
2023/04/19 08:59:25;;;;;;;10.05;5.20;;;;;;;;;;5072708;28;20361;-65
2023/04/19 09:01:51;;;;;;;5.47;4.95;;;;;;;;;;5089569;28;20465;-66
2023/04/19 09:04:16;;;;;;;5.63;4.95;;;;;;;;;;5089510;28;20043;-65
2023/04/19 09:06:45;;;;;;;5.68;4.55;;;;;;;;;;5087471;28;20039;-65
2023/04/19 09:09:18;;;;;;;8.88;5.28;;;;;;;;;;5086705;28;20024;-65
2023/04/19 09:11:44;;;;;;;7.43;4.75;;;;;;;;;;5089161;28;20028;-65
2023/04/19 09:14:11;;;;;;;7.43;5.47;;;;;;;;;;5087439;28;20532;-65
2023/04/19 09:16:38;;;;;;;11.43;5.50;;;;;;;;;;5089788;28;20093;-66
2023/04/19 09:19:05;;;;;;;11.82;5.57;;;;;;;;;;5073123;28;20031;-65
2023/04/19 09:21:32;;;;;;;10.57;5.55;;;;;;;;;;5090775;28;20099;-66
2023/04/19 09:23:59;;;;;;;11.43;4.90;;;;;;;;;;5091208;28;20043;-65
2023/04/19 09:26:28;;;;;;;11.65;5.15;;;;;;;;;;5090820;28;20020;-65
2023/04/19 09:29:01;;;;;;;7.93;5.30;;;;;;;;;;5082206;28;20085;-66
2023/04/19 09:31:28;;;;;;;6.55;5.28;;;;;;;;;;5088711;28;20028;-65
2023/04/19 09:33:54;;;;;;;13.35;5.65;;;;;;;;;;5082665;28;20185;-65
2023/04/19 09:36:27;;;;;;;16.10;5.65;;;;;;;;;;5070531;28;20453;-64
2023/04/19 09:38:53;;;;;;;12.02;5.50;;;;;;;;;;5079405;28;20025;-64
2023/04/19 09:41:18;;;;;;;8.57;5.43;;;;;;;;;;5090199;28;20028;-65
2023/04/19 09:43:45;;;;;;;12.38;5.47;;;;;;;;;;5090562;28;20101;-66
2023/04/19 09:46:41;;;;;;;11.88;5.38;;;;;;;;;;5090659;28;20391;-64
2023/04/19 09:49:12;;;;;;;8.07;5.05;;;;;;;;;;5073705;28;20419;-63
2023/04/19 09:51:43;;;;;;;7.43;5.18;;;;;;;;;;5072488;28;20055;-63
2023/04/19 09:54:10;;;;;;;9.00;5.18;;;;;;;;;;5090760;28;20380;-64
2023/04/19 09:56:36;;;;;;;7.63;5.35;;;;;;;;;;5087325;28;20025;-65
2023/04/19 09:59:03;;;;;;;7.10;5.30;;;;;;;;;;5070167;28;20032;-65
2023/04/19 10:01:45;;;;;;;7.72;5.32;;;;;;;;;;5070312;28;20025;-65
2023/04/19 10:04:20;;;;;;;12.15;5.95;;;;;;;;;;5070502;28;20044;-65
2023/04/19 10:06:50;;;;;;;9.77;5.13;;;;;;;;;;5070456;28;20033;-65
2023/04/19 10:09:22;;;;;;;9.18;5.90;;;;;;;;;;5070114;28;20542;-65
2023/04/19 10:11:50;;;;;;;10.55;6.20;;;;;;;;;;5070055;28;20039;-65
2023/04/19 10:14:20;;;;;;;21.67;6.15;;;;;;;;;;5070152;28;20025;-65
2023/04/19 10:16:46;;;;;;;10.30;5.65;;;;;;;;;;5070080;28;20492;-65
2023/04/19 10:19:15;;;;;;;10.30;5.57;;;;;;;;;;5069939;28;20025;-65
2023/04/19 10:21:46;;;;;;;9.77;5.15;;;;;;;;;;5070028;28;20029;-66
2023/04/19 10:24:13;;;;;;;7.30;5.35;;;;;;;;;;5069861;28;20052;-65
2023/04/19 10:27:09;;;;;;;10.48;5.47;;;;;;;;;;5069884;28;20037;-65
2023/04/19 10:29:54;;;;;;;8.50;5.07;;;;;;;;;;5069754;28;20052;-60
2023/04/19 10:32:19;;;;;;;10.32;5.90;;;;;;;;;;5051746;28;20517;-60
2023/04/19 10:34:45;;;;;;;9.88;5.25;;;;;;;;;;5069559;28;20080;-65
2023/04/19 10:37:13;;;;;;;8.48;5.55;;;;;;;;;;5070810;28;20029;-62
2023/04/19 10:39:43;;;;;;;12.23;5.40;;;;;;;;;;5073399;28;20030;-62
2023/04/19 10:42:09;;;;;;;13.63;5.55;;;;;;;;;;5073451;28;20057;-63
2023/04/19 10:44:35;;;;;;;8.38;5.82;;;;;;;;;;5073378;28;20073;-64
2023/04/19 10:47:01;;;;;;;8.30;5.30;;;;;;;;;;5073170;28;20024;-62
2023/04/19 10:49:30;;;;;;;7.50;5.07;;;;;;;;;;5073233;28;20036;-63
2023/04/19 10:51:58;;;;;;;6.95;4.93;;;;;;;;;;5073271;28;20139;-64
2023/04/19 10:54:31;;;;;;;8.45;5.25;;;;;;;;;;5073161;28;20036;-65
2023/04/19 10:57:01;;;;;;;12.27;5.22;;;;;;;;;;5073309;28;20028;-63
2023/04/19 10:59:34;;;;;;;12.15;5.97;;;;;;;;;;5073060;28;20036;-63
2023/04/19 11:02:02;;;;;;;8.35;5.60;;;;;;;;;;5073372;28;20036;-61
2023/04/19 11:04:30;;;;;;;7.95;5.63;;;;;;;;;;5079917;28;20027;-62
2023/04/19 11:07:04;;;;;;;137.25;12.88;;;;;;;;;;5090555;28;20557;-62
2023/04/19 11:09:35;;;;;;;43.92;7.95;;;;;;;;;;5090985;28;20145;-62
2023/04/19 11:12:04;;;;;;;28.95;5.75;;;;;;;;;;5088638;28;20507;-63
2023/04/19 11:14:32;;;;;;;22.92;6.10;;;;;;;;;;5091615;28;20032;-62
2023/04/19 11:16:58;;;;;;;13.82;6.00;;;;;;;;;;5072916;28;20028;-62
2023/04/19 11:19:23;;;;;;;11.73;5.80;;;;;;;;;;5087518;28;20032;-61
2023/04/19 11:21:49;;;;;;;18.27;5.57;;;;;;;;;;5093057;28;20039;-61
2023/04/19 11:24:19;;;;;;;10.23;5.43;;;;;;;;;;5088750;28;20028;-60
2023/04/19 11:26:47;;;;;;;14.77;5.70;;;;;;;;;;5092657;28;20814;-61
2023/04/19 11:29:13;;;;;;;12.07;5.80;;;;;;;;;;5090465;28;20040;-63
2023/04/19 11:31:39;;;;;;;9.95;5.63;;;;;;;;;;5069960;28;20451;-62
2023/04/19 11:34:04;;;;;;;16.15;6.55;;;;;;;;;;5089769;28;20083;-63
2023/04/19 11:36:35;;;;;;;14.63;5.65;;;;;;;;;;5092680;28;20046;-63
2023/04/19 11:39:05;;;;;;;6.95;5.47;;;;;;;;;;5093015;28;20429;-64
2023/04/19 11:41:37;;;;;;;7.75;5.13;;;;;;;;;;5092407;28;20023;-62
2023/04/19 11:44:03;;;;;;;10.45;5.00;;;;;;;;;;5091315;28;20031;-63
2023/04/19 11:46:29;;;;;;;6.70;4.68;;;;;;;;;;5092297;28;20081;-64
2023/04/19 11:48:55;;;;;;;8.15;5.10;;;;;;;;;;5087841;28;20039;-63
2023/04/19 11:51:21;;;;;;;9.10;5.05;;;;;;;;;;5072155;28;20526;-65
2023/04/19 11:53:46;;;;;;;7.55;4.78;;;;;;;;;;5072362;28;20037;-64
2023/04/19 11:56:14;;;;;;;7.07;4.80;;;;;;;;;;5072014;28;20400;-62
2023/04/19 11:58:46;;;;;;;6.20;4.35;;;;;;;;;;5071871;28;20028;-62
2023/04/19 12:01:19;;;;;;;8.43;4.30;;;;;;;;;;5054236;28;20389;-62
2023/04/19 12:03:48;;;;;;;7.95;4.45;;;;;;;;;;5071975;28;20115;-62
2023/04/19 12:06:21;;;;;;;11.45;4.72;;;;;;;;;;5072086;28;20024;-62
2023/04/19 12:08:49;;;;;;;6.32;4.32;;;;;;;;;;5071748;28;20036;-62
2023/04/19 12:11:17;;;;;;;6.70;4.55;;;;;;;;;;5083037;28;20060;-62
2023/04/19 12:13:43;;;;;;;5.25;4.10;;;;;;;;;;5091782;28;20038;-63
2023/04/19 12:16:10;;;;;;;6.95;4.70;;;;;;;;;;5091627;28;20024;-62
2023/04/19 12:18:49;;;;;;;8.73;4.20;;;;;;;;;;5091481;28;20028;-63
2023/04/19 12:21:30;;;;;;;5.75;3.70;;;;;;;;;;5091692;28;20024;-64
2023/04/19 12:24:00;;;;;;;11.10;4.18;;;;;;;;;;5073516;28;20032;-62
2023/04/19 12:26:27;;;;;;;6.60;4.18;;;;;;;;;;5091433;28;20081;-62
2023/04/19 12:28:54;;;;;;;6.25;4.45;;;;;;;;;;5056741;28;20039;-62
2023/04/19 12:31:19;;;;;;;7.68;4.57;;;;;;;;;;5091362;28;20046;-63
2023/04/19 12:33:45;;;;;;;12.13;5.22;;;;;;;;;;5088697;28;20083;-62
2023/04/19 12:36:11;;;;;;;12.00;4.80;;;;;;;;;;5071451;28;20468;-62
2023/04/19 12:38:37;;;;;;;12.23;5.28;;;;;;;;;;5072077;28;20437;-64
2023/04/19 12:41:03;;;;;;;12.48;5.80;;;;;;;;;;5078660;28;20077;-61
2023/04/19 12:43:30;;;;;;;14.95;5.63;;;;;;;;;;5071606;28;20028;-61
2023/04/19 12:45:57;;;;;;;9.38;5.15;;;;;;;;;;5091331;28;20012;-60
2023/04/19 12:48:23;;;;;;;15.80;4.70;;;;;;;;;;5091333;28;20388;-62
2023/04/19 12:50:49;;;;;;;8.55;4.65;;;;;;;;;;5091287;28;20506;-60
2023/04/19 12:53:15;;;;;;;9.25;5.22;;;;;;;;;;5091075;28;20028;-62
2023/04/19 12:55:40;;;;;;;8.88;4.80;;;;;;;;;;5088426;28;20047;-63
2023/04/19 12:58:06;;;;;;;13.50;5.38;;;;;;;;;;5084232;28;20028;-62
2023/04/19 13:00:32;;;;;;;8.30;4.40;;;;;;;;;;5090663;28;20035;-60
2023/04/19 13:02:57;;;;;;;9.50;4.30;;;;;;;;;;5090970;28;20031;-59
2023/04/19 13:05:23;;;;;;;7.57;4.95;;;;;;;;;;5091063;28;20035;-61
2023/04/19 13:07:49;;;;;;;9.40;4.28;;;;;;;;;;5090819;28;20032;-62
2023/04/19 13:10:14;;;;;;;8.85;5.03;;;;;;;;;;5087942;28;20028;-61
2023/04/19 13:12:40;;;;;;;8.32;4.60;;;;;;;;;;5090787;28;20016;-61
2023/04/19 13:15:07;;;;;;;7.07;4.50;;;;;;;;;;5090778;28;20084;-61
2023/04/19 13:17:32;;;;;;;9.57;4.72;;;;;;;;;;5090739;28;20484;-60
2023/04/19 13:19:58;;;;;;;12.18;4.90;;;;;;;;;;5090479;28;20032;-61
2023/04/19 13:22:23;;;;;;;11.70;4.50;;;;;;;;;;5090066;28;20107;-62
2023/04/19 13:24:49;;;;;;;8.57;4.10;;;;;;;;;;5089727;28;20024;-59
2023/04/19 13:27:15;;;;;;;9.35;4.80;;;;;;;;;;5089863;28;20107;-60
2023/04/19 13:29:40;;;;;;;10.27;4.50;;;;;;;;;;5093724;28;20032;-62
2023/04/19 13:32:10;;;;;;;11.07;4.30;;;;;;;;;;5080687;28;20024;-61
2023/04/19 13:34:36;;;;;;;;;;;;;;;;;;5089923;28;20050;-59
2023/04/19 13:37:01;;;;;;;10.05;4.18;;;;;;;;;;5090450;28;20015;-62
2023/04/19 13:39:27;;;;;;;4.85;3.78;;;;;;;;;;5090934;28;20054;-62
2023/04/19 13:41:52;;;;;;;8.45;4.18;;;;;;;;;;5088369;28;20035;-62
2023/04/19 13:44:18;;;;;;;8.73;4.05;;;;;;;;;;5091133;28;20418;-61
2023/04/19 13:46:43;;;;;;;6.28;4.35;;;;;;;;;;5092075;28;20024;-62
2023/04/19 13:49:09;;;;;;;6.53;4.05;;;;;;;;;;5092317;28;20491;-60
2023/04/19 13:51:34;;;;;;;7.53;4.60;;;;;;;;;;5088370;28;20111;-62
2023/04/19 13:54:00;;;;;;;6.32;4.70;;;;;;;;;;5091743;28;20085;-61
2023/04/19 13:56:26;;;;;;;10.07;4.32;;;;;;;;;;5091012;28;20024;-59
2023/04/19 13:58:51;;;;;;;6.60;4.78;;;;;;;;;;5090893;28;20032;-61
2023/04/19 14:01:17;;;;;;;9.75;5.03;;;;;;;;;;5088876;28;20024;-60
2023/04/19 14:03:43;;;;;;;8.32;4.28;;;;;;;;;;5089912;28;20024;-59
2023/04/19 14:06:08;;;;;;;9.57;5.03;;;;;;;;;;5092232;28;20055;-59
2023/04/19 14:08:34;;;;;;;8.70;4.15;;;;;;;;;;5086006;28;20086;-60
2023/04/19 14:10:59;;;;;;;10.73;4.57;;;;;;;;;;5071966;28;20036;-64
2023/04/19 14:13:25;;;;;;;5.22;3.92;;;;;;;;;;5074868;28;20020;-61
2023/04/19 14:15:51;;;;;;;7.80;4.65;;;;;;;;;;5088385;28;20089;-62
2023/04/19 14:18:16;;;;;;;11.63;4.50;;;;;;;;;;5096331;28;20034;-60
2023/04/19 14:20:43;;;;;;;5.70;3.95;;;;;;;;;;5084080;28;20033;-61
2023/04/19 14:23:08;;;;;;;5.70;4.35;;;;;;;;;;5075962;28;20407;-62
2023/04/19 14:25:35;;;;;;;9.10;4.75;;;;;;;;;;5074686;28;20031;-60
2023/04/19 14:28:01;;;;;;;10.02;4.45;;;;;;;;;;5075435;28;20043;-63
2023/04/19 14:30:26;;;;;;;7.18;3.95;;;;;;;;;;5075406;28;20020;-61
2023/04/19 14:32:52;;;;;;;5.97;3.85;;;;;;;;;;5075464;28;20020;-61
2023/04/19 14:35:19;;;;;;;7.60;4.38;;;;;;;;;;5076292;28;20047;-62
2023/04/19 14:37:44;;;;;;;8.95;4.25;;;;;;;;;;5083921;28;20027;-61